Walla Walla, Washington
Current Conditions -  °F | °C
As of 11:53 PM on Sunday 21 Dec 2014 (Local Time) from KALW Reporting Station
Overcast Overcast  
Wind Chill:   Ceiling: 11000
Heat Index:   Visibility: 10mi
Dew Point:   Wind: 8mph
Humidity: 80%   Direction: 160°SSE
Pressure: 30.08"   Gusts: NA
Location:  46.07°N, 118.34°W
Report Text: KALW 220753Z AUTO 16007KT 10SM OVC110 08/05 A3008 RMK AO2 SLP188 T00830050 401560083
Loading
Personal Weather Stations






























Interactive Weather Map New forecast layout! Learn more

10-Day Weather Forecast

Advertisements
Track Severe Weather on mobile